sensor_id;sensor_type;location;lat;lon;timestamp;P1;durP1;ratioP1;P2;durP2;ratioP2
78871;SDS011;68247;43.514;1.502;2023-11-19T00:02:10;15.63;;;7.70;;
78871;SDS011;68247;43.514;1.502;2023-11-19T00:04:36;16.57;;;8.03;;
78871;SDS011;68247;43.514;1.502;2023-11-19T00:07:04;15.57;;;8.35;;
78871;SDS011;68247;43.514;1.502;2023-11-19T00:09:31;16.42;;;7.97;;
78871;SDS011;68247;43.514;1.502;2023-11-19T00:11:57;15.60;;;8.40;;
78871;SDS011;68247;43.514;1.502;2023-11-19T00:14:22;14.38;;;7.85;;
78871;SDS011;68247;43.514;1.502;2023-11-19T00:16:49;14.43;;;7.38;;
78871;SDS011;68247;43.514;1.502;2023-11-19T00:19:16;13.23;;;6.90;;
78871;SDS011;68247;43.514;1.502;2023-11-19T00:21:41;14.65;;;7.72;;
78871;SDS011;68247;43.514;1.502;2023-11-19T00:24:07;12.83;;;6.97;;
78871;SDS011;68247;43.514;1.502;2023-11-19T00:26:33;13.23;;;6.50;;
78871;SDS011;68247;43.514;1.502;2023-11-19T00:28:58;13.03;;;6.93;;
78871;SDS011;68247;43.514;1.502;2023-11-19T00:31:24;12.85;;;7.40;;
78871;SDS011;68247;43.514;1.502;2023-11-19T00:33:51;15.02;;;7.47;;
78871;SDS011;68247;43.514;1.502;2023-11-19T00:36:16;14.77;;;8.07;;
78871;SDS011;68247;43.514;1.502;2023-11-19T00:38:42;12.57;;;7.23;;
78871;SDS011;68247;43.514;1.502;2023-11-19T00:41:07;13.97;;;7.73;;
78871;SDS011;68247;43.514;1.502;2023-11-19T00:43:33;15.17;;;8.17;;
78871;SDS011;68247;43.514;1.502;2023-11-19T00:45:58;16.65;;;8.43;;
78871;SDS011;68247;43.514;1.502;2023-11-19T00:48:24;16.27;;;8.70;;
78871;SDS011;68247;43.514;1.502;2023-11-19T00:50:49;15.10;;;8.87;;
78871;SDS011;68247;43.514;1.502;2023-11-19T00:53:15;19.80;;;9.23;;
78871;SDS011;68247;43.514;1.502;2023-11-19T00:55:40;15.20;;;8.33;;
78871;SDS011;68247;43.514;1.502;2023-11-19T00:58:05;18.50;;;10.53;;
78871;SDS011;68247;43.514;1.502;2023-11-19T01:00:31;19.63;;;10.73;;
78871;SDS011;68247;43.514;1.502;2023-11-19T01:02:57;20.60;;;12.20;;
78871;SDS011;68247;43.514;1.502;2023-11-19T01:05:23;20.90;;;11.67;;
78871;SDS011;68247;43.514;1.502;2023-11-19T01:07:48;18.73;;;10.90;;
78871;SDS011;68247;43.514;1.502;2023-11-19T01:10:14;20.20;;;11.65;;
78871;SDS011;68247;43.514;1.502;2023-11-19T01:12:40;20.65;;;11.98;;
78871;SDS011;68247;43.514;1.502;2023-11-19T01:15:07;19.33;;;10.70;;
78871;SDS011;68247;43.514;1.502;2023-11-19T01:17:32;18.33;;;10.50;;
78871;SDS011;68247;43.514;1.502;2023-11-19T01:19:58;18.00;;;10.03;;
78871;SDS011;68247;43.514;1.502;2023-11-19T01:22:23;18.80;;;10.23;;
78871;SDS011;68247;43.514;1.502;2023-11-19T01:24:49;16.67;;;10.00;;
78871;SDS011;68247;43.514;1.502;2023-11-19T01:27:14;19.80;;;10.90;;
78871;SDS011;68247;43.514;1.502;2023-11-19T01:29:40;18.70;;;10.17;;
78871;SDS011;68247;43.514;1.502;2023-11-19T01:32:05;17.10;;;9.37;;
78871;SDS011;68247;43.514;1.502;2023-11-19T01:34:31;13.60;;;8.63;;
78871;SDS011;68247;43.514;1.502;2023-11-19T01:36:57;16.45;;;8.85;;
78871;SDS011;68247;43.514;1.502;2023-11-19T01:39:22;16.30;;;9.37;;
78871;SDS011;68247;43.514;1.502;2023-11-19T01:41:47;18.13;;;9.10;;
78871;SDS011;68247;43.514;1.502;2023-11-19T01:44:13;15.20;;;8.27;;
78871;SDS011;68247;43.514;1.502;2023-11-19T01:46:40;17.42;;;9.20;;
78871;SDS011;68247;43.514;1.502;2023-11-19T01:49:06;16.20;;;8.57;;
78871;SDS011;68247;43.514;1.502;2023-11-19T01:51:32;17.45;;;9.23;;
78871;SDS011;68247;43.514;1.502;2023-11-19T01:53:57;17.27;;;9.60;;
78871;SDS011;68247;43.514;1.502;2023-11-19T01:56:23;16.95;;;8.85;;
78871;SDS011;68247;43.514;1.502;2023-11-19T01:58:50;15.35;;;8.30;;
78871;SDS011;68247;43.514;1.502;2023-11-19T02:01:15;16.07;;;8.57;;
78871;SDS011;68247;43.514;1.502;2023-11-19T02:03:42;14.68;;;8.70;;
78871;SDS011;68247;43.514;1.502;2023-11-19T02:06:07;17.13;;;9.30;;
78871;SDS011;68247;43.514;1.502;2023-11-19T02:08:35;14.63;;;8.93;;
78871;SDS011;68247;43.514;1.502;2023-11-19T02:11:01;14.77;;;8.77;;
78871;SDS011;68247;43.514;1.502;2023-11-19T02:13:26;17.00;;;8.73;;
78871;SDS011;68247;43.514;1.502;2023-11-19T02:15:53;17.48;;;8.60;;
78871;SDS011;68247;43.514;1.502;2023-11-19T02:18:22;15.53;;;9.20;;
78871;SDS011;68247;43.514;1.502;2023-11-19T02:20:49;19.38;;;8.90;;
78871;SDS011;68247;43.514;1.502;2023-11-19T02:23:15;17.92;;;9.18;;
78871;SDS011;68247;43.514;1.502;2023-11-19T02:25:41;19.97;;;9.33;;
78871;SDS011;68247;43.514;1.502;2023-11-19T02:28:06;14.43;;;8.77;;
78871;SDS011;68247;43.514;1.502;2023-11-19T02:30:32;19.27;;;9.10;;
78871;SDS011;68247;43.514;1.502;2023-11-19T02:32:58;17.40;;;9.23;;
78871;SDS011;68247;43.514;1.502;2023-11-19T02:35:26;14.32;;;8.55;;
78871;SDS011;68247;43.514;1.502;2023-11-19T02:37:51;16.55;;;9.32;;
78871;SDS011;68247;43.514;1.502;2023-11-19T02:40:17;15.57;;;8.97;;
78871;SDS011;68247;43.514;1.502;2023-11-19T02:42:43;16.52;;;9.52;;
78871;SDS011;68247;43.514;1.502;2023-11-19T02:45:09;16.67;;;9.07;;
78871;SDS011;68247;43.514;1.502;2023-11-19T02:47:39;15.95;;;8.82;;
78871;SDS011;68247;43.514;1.502;2023-11-19T02:50:11;19.30;;;8.80;;
78871;SDS011;68247;43.514;1.502;2023-11-19T02:52:43;18.05;;;10.00;;
78871;SDS011;68247;43.514;1.502;2023-11-19T02:55:10;17.63;;;9.30;;
78871;SDS011;68247;43.514;1.502;2023-11-19T02:57:41;17.58;;;9.50;;
78871;SDS011;68247;43.514;1.502;2023-11-19T03:00:16;15.45;;;9.05;;
78871;SDS011;68247;43.514;1.502;2023-11-19T03:02:42;18.92;;;9.95;;
78871;SDS011;68247;43.514;1.502;2023-11-19T03:05:13;19.83;;;9.20;;
78871;SDS011;68247;43.514;1.502;2023-11-19T03:07:40;18.53;;;10.50;;
78871;SDS011;68247;43.514;1.502;2023-11-19T03:10:07;16.17;;;9.55;;
78871;SDS011;68247;43.514;1.502;2023-11-19T03:12:34;17.55;;;10.32;;
78871;SDS011;68247;43.514;1.502;2023-11-19T03:15:00;18.33;;;10.45;;
78871;SDS011;68247;43.514;1.502;2023-11-19T03:17:25;19.43;;;11.30;;
78871;SDS011;68247;43.514;1.502;2023-11-19T03:19:51;21.13;;;10.70;;
78871;SDS011;68247;43.514;1.502;2023-11-19T03:22:17;18.50;;;11.07;;
78871;SDS011;68247;43.514;1.502;2023-11-19T03:24:42;18.03;;;11.17;;
78871;SDS011;68247;43.514;1.502;2023-11-19T03:27:07;20.67;;;10.73;;
78871;SDS011;68247;43.514;1.502;2023-11-19T03:29:33;19.13;;;10.93;;
78871;SDS011;68247;43.514;1.502;2023-11-19T03:31:58;16.63;;;10.00;;
78871;SDS011;68247;43.514;1.502;2023-11-19T03:34:23;21.33;;;11.40;;
78871;SDS011;68247;43.514;1.502;2023-11-19T03:36:49;25.02;;;13.13;;
78871;SDS011;68247;43.514;1.502;2023-11-19T03:39:14;19.92;;;12.07;;
78871;SDS011;68247;43.514;1.502;2023-11-19T03:41:39;20.57;;;12.97;;
78871;SDS011;68247;43.514;1.502;2023-11-19T03:44:05;22.63;;;13.57;;
78871;SDS011;68247;43.514;1.502;2023-11-19T03:46:30;20.30;;;13.23;;
78871;SDS011;68247;43.514;1.502;2023-11-19T03:48:56;21.23;;;12.20;;
78871;SDS011;68247;43.514;1.502;2023-11-19T03:51:21;20.43;;;11.27;;
78871;SDS011;68247;43.514;1.502;2023-11-19T03:53:47;19.43;;;10.80;;
78871;SDS011;68247;43.514;1.502;2023-11-19T03:56:12;21.87;;;12.17;;
78871;SDS011;68247;43.514;1.502;2023-11-19T03:58:38;20.73;;;11.40;;
78871;SDS011;68247;43.514;1.502;2023-11-19T04:01:13;19.27;;;11.57;;
78871;SDS011;68247;43.514;1.502;2023-11-19T04:03:38;19.98;;;12.02;;
78871;SDS011;68247;43.514;1.502;2023-11-19T04:06:04;20.80;;;11.63;;
78871;SDS011;68247;43.514;1.502;2023-11-19T04:08:29;21.50;;;11.93;;
78871;SDS011;68247;43.514;1.502;2023-11-19T04:10:55;18.10;;;10.70;;
78871;SDS011;68247;43.514;1.502;2023-11-19T04:13:20;19.87;;;11.27;;
78871;SDS011;68247;43.514;1.502;2023-11-19T04:15:46;17.70;;;10.57;;
78871;SDS011;68247;43.514;1.502;2023-11-19T04:18:11;19.60;;;11.10;;
78871;SDS011;68247;43.514;1.502;2023-11-19T04:20:36;20.33;;;12.03;;
78871;SDS011;68247;43.514;1.502;2023-11-19T04:23:02;25.63;;;13.23;;
78871;SDS011;68247;43.514;1.502;2023-11-19T04:25:27;23.75;;;13.82;;
78871;SDS011;68247;43.514;1.502;2023-11-19T04:27:53;22.17;;;13.43;;
78871;SDS011;68247;43.514;1.502;2023-11-19T04:30:19;24.30;;;13.70;;
78871;SDS011;68247;43.514;1.502;2023-11-19T04:32:44;25.67;;;13.52;;
78871;SDS011;68247;43.514;1.502;2023-11-19T04:35:10;23.13;;;13.30;;
78871;SDS011;68247;43.514;1.502;2023-11-19T04:37:35;21.80;;;12.30;;
78871;SDS011;68247;43.514;1.502;2023-11-19T04:40:01;23.75;;;13.50;;
78871;SDS011;68247;43.514;1.502;2023-11-19T04:42:27;20.98;;;13.15;;
78871;SDS011;68247;43.514;1.502;2023-11-19T04:44:52;26.90;;;13.60;;
78871;SDS011;68247;43.514;1.502;2023-11-19T04:47:18;24.30;;;13.50;;
78871;SDS011;68247;43.514;1.502;2023-11-19T04:49:43;23.63;;;13.83;;
78871;SDS011;68247;43.514;1.502;2023-11-19T04:52:09;23.17;;;12.48;;
78871;SDS011;68247;43.514;1.502;2023-11-19T04:54:34;24.80;;;13.30;;
78871;SDS011;68247;43.514;1.502;2023-11-19T04:57:00;22.03;;;12.73;;
78871;SDS011;68247;43.514;1.502;2023-11-19T04:59:25;22.97;;;12.83;;
78871;SDS011;68247;43.514;1.502;2023-11-19T05:01:52;18.70;;;11.85;;
78871;SDS011;68247;43.514;1.502;2023-11-19T05:04:18;22.10;;;12.40;;
78871;SDS011;68247;43.514;1.502;2023-11-19T05:06:43;19.85;;;12.05;;
78871;SDS011;68247;43.514;1.502;2023-11-19T05:09:09;22.60;;;12.20;;
78871;SDS011;68247;43.514;1.502;2023-11-19T05:11:37;19.88;;;11.68;;
78871;SDS011;68247;43.514;1.502;2023-11-19T05:14:03;21.38;;;11.90;;
78871;SDS011;68247;43.514;1.502;2023-11-19T05:16:29;18.83;;;11.27;;
78871;SDS011;68247;43.514;1.502;2023-11-19T05:18:54;20.33;;;11.40;;
78871;SDS011;68247;43.514;1.502;2023-11-19T05:21:20;20.07;;;11.80;;
78871;SDS011;68247;43.514;1.502;2023-11-19T05:23:45;21.67;;;11.53;;
78871;SDS011;68247;43.514;1.502;2023-11-19T05:26:21;19.17;;;11.10;;
78871;SDS011;68247;43.514;1.502;2023-11-19T05:28:48;18.48;;;10.73;;
78871;SDS011;68247;43.514;1.502;2023-11-19T05:31:14;19.23;;;11.33;;
78871;SDS011;68247;43.514;1.502;2023-11-19T05:33:41;20.13;;;10.88;;
78871;SDS011;68247;43.514;1.502;2023-11-19T05:36:06;18.67;;;10.77;;
78871;SDS011;68247;43.514;1.502;2023-11-19T05:38:33;21.25;;;11.27;;
78871;SDS011;68247;43.514;1.502;2023-11-19T05:41:01;18.42;;;10.48;;
78871;SDS011;68247;43.514;1.502;2023-11-19T05:43:27;16.03;;;10.27;;
78871;SDS011;68247;43.514;1.502;2023-11-19T05:45:53;18.10;;;9.75;;
78871;SDS011;68247;43.514;1.502;2023-11-19T05:48:18;19.17;;;9.90;;
78871;SDS011;68247;43.514;1.502;2023-11-19T05:50:43;18.83;;;10.63;;
78871;SDS011;68247;43.514;1.502;2023-11-19T05:53:09;17.05;;;9.35;;
78871;SDS011;68247;43.514;1.502;2023-11-19T05:55:38;20.80;;;10.07;;
78871;SDS011;68247;43.514;1.502;2023-11-19T05:58:24;19.83;;;10.88;;
78871;SDS011;68247;43.514;1.502;2023-11-19T06:00:51;19.90;;;9.80;;
78871;SDS011;68247;43.514;1.502;2023-11-19T06:03:17;18.50;;;9.63;;
78871;SDS011;68247;43.514;1.502;2023-11-19T06:05:46;18.27;;;9.23;;
78871;SDS011;68247;43.514;1.502;2023-11-19T06:08:11;18.45;;;10.10;;
78871;SDS011;68247;43.514;1.502;2023-11-19T06:10:38;19.52;;;10.38;;
78871;SDS011;68247;43.514;1.502;2023-11-19T06:13:04;17.13;;;10.25;;
78871;SDS011;68247;43.514;1.502;2023-11-19T06:15:30;21.33;;;11.10;;
78871;SDS011;68247;43.514;1.502;2023-11-19T06:17:57;20.55;;;11.05;;
78871;SDS011;68247;43.514;1.502;2023-11-19T06:20:24;18.40;;;10.52;;
78871;SDS011;68247;43.514;1.502;2023-11-19T06:22:50;19.73;;;11.00;;
78871;SDS011;68247;43.514;1.502;2023-11-19T06:25:15;18.00;;;10.57;;
78871;SDS011;68247;43.514;1.502;2023-11-19T06:27:41;18.67;;;11.03;;
78871;SDS011;68247;43.514;1.502;2023-11-19T06:30:07;20.60;;;10.48;;
78871;SDS011;68247;43.514;1.502;2023-11-19T06:32:33;15.85;;;9.80;;
78871;SDS011;68247;43.514;1.502;2023-11-19T06:34:59;15.67;;;9.83;;
78871;SDS011;68247;43.514;1.502;2023-11-19T06:37:24;16.13;;;9.60;;
78871;SDS011;68247;43.514;1.502;2023-11-19T06:39:49;19.80;;;9.90;;
78871;SDS011;68247;43.514;1.502;2023-11-19T06:42:15;19.77;;;10.57;;
78871;SDS011;68247;43.514;1.502;2023-11-19T06:44:40;18.50;;;9.57;;
78871;SDS011;68247;43.514;1.502;2023-11-19T06:47:06;16.67;;;9.50;;
78871;SDS011;68247;43.514;1.502;2023-11-19T06:49:31;19.00;;;10.07;;
78871;SDS011;68247;43.514;1.502;2023-11-19T06:51:57;17.75;;;9.90;;
78871;SDS011;68247;43.514;1.502;2023-11-19T06:54:22;17.10;;;9.97;;
78871;SDS011;68247;43.514;1.502;2023-11-19T06:56:48;23.13;;;10.50;;
78871;SDS011;68247;43.514;1.502;2023-11-19T06:59:14;17.85;;;10.50;;
78871;SDS011;68247;43.514;1.502;2023-11-19T07:01:39;21.20;;;10.87;;
78871;SDS011;68247;43.514;1.502;2023-11-19T07:04:10;21.70;;;11.15;;
78871;SDS011;68247;43.514;1.502;2023-11-19T07:06:36;21.90;;;11.90;;
78871;SDS011;68247;43.514;1.502;2023-11-19T07:09:02;18.97;;;11.13;;
78871;SDS011;68247;43.514;1.502;2023-11-19T07:11:35;18.80;;;11.50;;
78871;SDS011;68247;43.514;1.502;2023-11-19T07:14:03;22.50;;;11.85;;
78871;SDS011;68247;43.514;1.502;2023-11-19T07:16:29;18.87;;;11.03;;
78871;SDS011;68247;43.514;1.502;2023-11-19T07:18:55;18.45;;;11.27;;
78871;SDS011;68247;43.514;1.502;2023-11-19T07:21:20;19.83;;;11.77;;
78871;SDS011;68247;43.514;1.502;2023-11-19T07:23:46;22.27;;;11.30;;
78871;SDS011;68247;43.514;1.502;2023-11-19T07:26:11;18.88;;;11.07;;
78871;SDS011;68247;43.514;1.502;2023-11-19T07:28:37;17.70;;;10.60;;
78871;SDS011;68247;43.514;1.502;2023-11-19T07:31:04;19.50;;;10.68;;
78871;SDS011;68247;43.514;1.502;2023-11-19T07:33:32;19.90;;;11.30;;
78871;SDS011;68247;43.514;1.502;2023-11-19T07:35:58;17.50;;;10.43;;
78871;SDS011;68247;43.514;1.502;2023-11-19T07:38:24;17.27;;;10.43;;
78871;SDS011;68247;43.514;1.502;2023-11-19T07:40:49;18.50;;;9.63;;
78871;SDS011;68247;43.514;1.502;2023-11-19T07:43:14;18.70;;;10.83;;
78871;SDS011;68247;43.514;1.502;2023-11-19T07:45:40;20.07;;;9.90;;
78871;SDS011;68247;43.514;1.502;2023-11-19T07:48:08;18.25;;;10.77;;
78871;SDS011;68247;43.514;1.502;2023-11-19T07:50:34;20.98;;;10.68;;
78871;SDS011;68247;43.514;1.502;2023-11-19T07:52:59;19.70;;;10.45;;
78871;SDS011;68247;43.514;1.502;2023-11-19T07:55:25;19.43;;;11.00;;
78871;SDS011;68247;43.514;1.502;2023-11-19T07:57:52;17.48;;;10.88;;
78871;SDS011;68247;43.514;1.502;2023-11-19T08:00:17;18.23;;;10.47;;
78871;SDS011;68247;43.514;1.502;2023-11-19T08:02:44;20.95;;;11.00;;
78871;SDS011;68247;43.514;1.502;2023-11-19T08:05:10;17.03;;;10.90;;
78871;SDS011;68247;43.514;1.502;2023-11-19T08:07:36;19.23;;;11.02;;
78871;SDS011;68247;43.514;1.502;2023-11-19T08:10:02;19.93;;;11.13;;
78871;SDS011;68247;43.514;1.502;2023-11-19T08:12:27;15.02;;;9.38;;
78871;SDS011;68247;43.514;1.502;2023-11-19T08:14:53;15.00;;;9.30;;
78871;SDS011;68247;43.514;1.502;2023-11-19T08:17:18;14.17;;;9.00;;
78871;SDS011;68247;43.514;1.502;2023-11-19T08:19:43;19.20;;;9.87;;
78871;SDS011;68247;43.514;1.502;2023-11-19T08:22:09;15.70;;;9.80;;
78871;SDS011;68247;43.514;1.502;2023-11-19T08:24:34;18.43;;;9.83;;
78871;SDS011;68247;43.514;1.502;2023-11-19T08:27:00;16.13;;;9.38;;
78871;SDS011;68247;43.514;1.502;2023-11-19T08:29:25;15.43;;;9.53;;
78871;SDS011;68247;43.514;1.502;2023-11-19T08:31:52;13.40;;;8.82;;
78871;SDS011;68247;43.514;1.502;2023-11-19T08:34:17;18.30;;;9.40;;
78871;SDS011;68247;43.514;1.502;2023-11-19T08:36:43;17.43;;;9.70;;
78871;SDS011;68247;43.514;1.502;2023-11-19T08:39:08;16.05;;;9.57;;
78871;SDS011;68247;43.514;1.502;2023-11-19T08:41:33;16.07;;;8.93;;
78871;SDS011;68247;43.514;1.502;2023-11-19T08:43:59;15.60;;;8.80;;
78871;SDS011;68247;43.514;1.502;2023-11-19T08:46:25;17.17;;;9.00;;
78871;SDS011;68247;43.514;1.502;2023-11-19T08:48:51;14.23;;;8.77;;
78871;SDS011;68247;43.514;1.502;2023-11-19T08:51:16;15.38;;;8.77;;
78871;SDS011;68247;43.514;1.502;2023-11-19T08:53:42;16.47;;;8.57;;
78871;SDS011;68247;43.514;1.502;2023-11-19T08:56:07;13.60;;;8.07;;
78871;SDS011;68247;43.514;1.502;2023-11-19T08:58:33;13.30;;;8.27;;
78871;SDS011;68247;43.514;1.502;2023-11-19T09:00:58;16.00;;;8.93;;
78871;SDS011;68247;43.514;1.502;2023-11-19T09:03:23;14.20;;;8.20;;
78871;SDS011;68247;43.514;1.502;2023-11-19T09:05:51;12.85;;;8.02;;
78871;SDS011;68247;43.514;1.502;2023-11-19T09:08:17;15.03;;;9.20;;
78871;SDS011;68247;43.514;1.502;2023-11-19T09:10:42;16.37;;;8.57;;
78871;SDS011;68247;43.514;1.502;2023-11-19T09:13:08;17.73;;;9.88;;
78871;SDS011;68247;43.514;1.502;2023-11-19T09:15:33;15.43;;;9.57;;
78871;SDS011;68247;43.514;1.502;2023-11-19T09:17:59;15.23;;;9.77;;
78871;SDS011;68247;43.514;1.502;2023-11-19T09:20:24;16.50;;;10.47;;
78871;SDS011;68247;43.514;1.502;2023-11-19T09:22:49;17.47;;;11.20;;
78871;SDS011;68247;43.514;1.502;2023-11-19T09:25:16;18.13;;;10.75;;
78871;SDS011;68247;43.514;1.502;2023-11-19T09:27:42;16.38;;;10.18;;
78871;SDS011;68247;43.514;1.502;2023-11-19T09:30:08;14.35;;;9.57;;
78871;SDS011;68247;43.514;1.502;2023-11-19T09:32:34;16.53;;;9.00;;
78871;SDS011;68247;43.514;1.502;2023-11-19T09:34:59;14.37;;;8.67;;
78871;SDS011;68247;43.514;1.502;2023-11-19T09:37:25;11.57;;;8.27;;
78871;SDS011;68247;43.514;1.502;2023-11-19T09:39:51;16.30;;;8.88;;
78871;SDS011;68247;43.514;1.502;2023-11-19T09:42:18;13.60;;;8.00;;
78871;SDS011;68247;43.514;1.502;2023-11-19T09:44:44;14.23;;;8.83;;
78871;SDS011;68247;43.514;1.502;2023-11-19T09:47:10;14.55;;;7.85;;
78871;SDS011;68247;43.514;1.502;2023-11-19T09:49:36;12.05;;;7.65;;
78871;SDS011;68247;43.514;1.502;2023-11-19T09:52:02;14.33;;;7.87;;
78871;SDS011;68247;43.514;1.502;2023-11-19T09:54:28;13.57;;;8.60;;
78871;SDS011;68247;43.514;1.502;2023-11-19T09:56:53;14.50;;;8.63;;
78871;SDS011;68247;43.514;1.502;2023-11-19T09:59:24;13.03;;;7.60;;
78871;SDS011;68247;43.514;1.502;2023-11-19T10:01:50;14.10;;;8.18;;
78871;SDS011;68247;43.514;1.502;2023-11-19T10:04:16;13.32;;;7.60;;
78871;SDS011;68247;43.514;1.502;2023-11-19T10:06:42;14.07;;;8.30;;
78871;SDS011;68247;43.514;1.502;2023-11-19T10:09:07;14.77;;;8.43;;
78871;SDS011;68247;43.514;1.502;2023-11-19T10:11:33;13.63;;;8.30;;
78871;SDS011;68247;43.514;1.502;2023-11-19T10:13:59;13.93;;;7.73;;
78871;SDS011;68247;43.514;1.502;2023-11-19T10:16:28;10.20;;;7.45;;
78871;SDS011;68247;43.514;1.502;2023-11-19T10:18:55;12.57;;;7.90;;
78871;SDS011;68247;43.514;1.502;2023-11-19T10:21:21;11.27;;;7.17;;
78871;SDS011;68247;43.514;1.502;2023-11-19T10:23:56;13.43;;;7.72;;
78871;SDS011;68247;43.514;1.502;2023-11-19T10:26:24;12.30;;;7.50;;
78871;SDS011;68247;43.514;1.502;2023-11-19T10:28:50;11.50;;;6.95;;
78871;SDS011;68247;43.514;1.502;2023-11-19T10:31:16;12.63;;;7.27;;
78871;SDS011;68247;43.514;1.502;2023-11-19T10:33:43;13.45;;;7.03;;
78871;SDS011;68247;43.514;1.502;2023-11-19T10:36:12;10.82;;;7.25;;
78871;SDS011;68247;43.514;1.502;2023-11-19T10:38:38;14.17;;;7.43;;
78871;SDS011;68247;43.514;1.502;2023-11-19T10:41:04;10.50;;;6.70;;
78871;SDS011;68247;43.514;1.502;2023-11-19T10:43:42;12.25;;;6.50;;
78871;SDS011;68247;43.514;1.502;2023-11-19T10:46:13;10.38;;;6.28;;
78871;SDS011;68247;43.514;1.502;2023-11-19T10:48:39;12.15;;;6.55;;
78871;SDS011;68247;43.514;1.502;2023-11-19T10:51:05;10.70;;;6.10;;
78871;SDS011;68247;43.514;1.502;2023-11-19T10:53:37;10.95;;;5.63;;
78871;SDS011;68247;43.514;1.502;2023-11-19T10:56:06;10.05;;;6.10;;
78871;SDS011;68247;43.514;1.502;2023-11-19T10:58:35;10.63;;;6.00;;
78871;SDS011;68247;43.514;1.502;2023-11-19T11:01:03;9.60;;;5.10;;
78871;SDS011;68247;43.514;1.502;2023-11-19T11:03:52;10.20;;;6.00;;
78871;SDS011;68247;43.514;1.502;2023-11-19T11:06:19;9.48;;;5.80;;
78871;SDS011;68247;43.514;1.502;2023-11-19T11:08:45;12.50;;;6.40;;
78871;SDS011;68247;43.514;1.502;2023-11-19T11:11:11;9.50;;;5.65;;
78871;SDS011;68247;43.514;1.502;2023-11-19T11:13:39;10.38;;;6.30;;
78871;SDS011;68247;43.514;1.502;2023-11-19T11:16:06;12.75;;;6.20;;
78871;SDS011;68247;43.514;1.502;2023-11-19T11:18:32;12.45;;;5.72;;
78871;SDS011;68247;43.514;1.502;2023-11-19T11:21:05;9.23;;;5.70;;
78871;SDS011;68247;43.514;1.502;2023-11-19T11:26:31;10.77;;;5.72;;
78871;SDS011;68247;43.514;1.502;2023-11-19T11:29:05;9.27;;;6.07;;
78871;SDS011;68247;43.514;1.502;2023-11-19T11:39:43;10.35;;;5.40;;
78871;SDS011;68247;43.514;1.502;2023-11-19T11:50:08;10.43;;;5.80;;
78871;SDS011;68247;43.514;1.502;2023-11-19T11:55:51;11.93;;;6.43;;
78871;SDS011;68247;43.514;1.502;2023-11-19T11:58:18;8.93;;;5.50;;
78871;SDS011;68247;43.514;1.502;2023-11-19T12:00:48;8.70;;;5.40;;
78871;SDS011;68247;43.514;1.502;2023-11-19T12:03:13;8.68;;;4.45;;
78871;SDS011;68247;43.514;1.502;2023-11-19T12:05:45;8.13;;;4.43;;
78871;SDS011;68247;43.514;1.502;2023-11-19T12:08:14;6.67;;;4.33;;
78871;SDS011;68247;43.514;1.502;2023-11-19T12:10:47;8.70;;;4.60;;
78871;SDS011;68247;43.514;1.502;2023-11-19T12:13:17;8.35;;;4.40;;
78871;SDS011;68247;43.514;1.502;2023-11-19T12:20:57;6.93;;;5.00;;
78871;SDS011;68247;43.514;1.502;2023-11-19T12:23:25;10.23;;;5.78;;
78871;SDS011;68247;43.514;1.502;2023-11-19T12:25:54;7.88;;;4.75;;
78871;SDS011;68247;43.514;1.502;2023-11-19T12:28:20;8.23;;;5.38;;
78871;SDS011;68247;43.514;1.502;2023-11-19T12:30:45;9.10;;;4.70;;
78871;SDS011;68247;43.514;1.502;2023-11-19T12:33:12;8.93;;;4.78;;
78871;SDS011;68247;43.514;1.502;2023-11-19T12:35:45;8.60;;;4.90;;
78871;SDS011;68247;43.514;1.502;2023-11-19T12:38:18;8.73;;;4.73;;
78871;SDS011;68247;43.514;1.502;2023-11-19T12:40:46;8.50;;;4.93;;
78871;SDS011;68247;43.514;1.502;2023-11-19T12:43:11;10.00;;;5.20;;
78871;SDS011;68247;43.514;1.502;2023-11-19T12:45:46;8.95;;;5.07;;
78871;SDS011;68247;43.514;1.502;2023-11-19T12:48:13;8.60;;;4.33;;
78871;SDS011;68247;43.514;1.502;2023-11-19T12:50:54;7.13;;;4.33;;
78871;SDS011;68247;43.514;1.502;2023-11-19T12:53:25;8.80;;;4.47;;
78871;SDS011;68247;43.514;1.502;2023-11-19T12:55:51;8.18;;;4.50;;
78871;SDS011;68247;43.514;1.502;2023-11-19T12:58:35;7.40;;;4.32;;
78871;SDS011;68247;43.514;1.502;2023-11-19T13:01:05;8.13;;;4.45;;
78871;SDS011;68247;43.514;1.502;2023-11-19T13:03:32;7.97;;;4.45;;
78871;SDS011;68247;43.514;1.502;2023-11-19T13:06:02;8.50;;;4.90;;
78871;SDS011;68247;43.514;1.502;2023-11-19T13:11:04;8.65;;;5.05;;
78871;SDS011;68247;43.514;1.502;2023-11-19T13:13:31;8.50;;;4.95;;
78871;SDS011;68247;43.514;1.502;2023-11-19T13:16:06;7.10;;;4.67;;
78871;SDS011;68247;43.514;1.502;2023-11-19T13:18:31;11.13;;;4.78;;
78871;SDS011;68247;43.514;1.502;2023-11-19T13:20:57;9.97;;;5.40;;
78871;SDS011;68247;43.514;1.502;2023-11-19T13:23:22;8.53;;;4.90;;
78871;SDS011;68247;43.514;1.502;2023-11-19T13:25:47;8.87;;;4.30;;
78871;SDS011;68247;43.514;1.502;2023-11-19T13:28:13;10.17;;;4.90;;
78871;SDS011;68247;43.514;1.502;2023-11-19T13:30:39;8.13;;;5.35;;
78871;SDS011;68247;43.514;1.502;2023-11-19T13:33:04;7.13;;;4.70;;
78871;SDS011;68247;43.514;1.502;2023-11-19T13:35:30;6.70;;;4.23;;
78871;SDS011;68247;43.514;1.502;2023-11-19T13:37:55;7.73;;;4.60;;
78871;SDS011;68247;43.514;1.502;2023-11-19T13:40:21;9.13;;;4.20;;
78871;SDS011;68247;43.514;1.502;2023-11-19T13:42:47;6.73;;;4.03;;
78871;SDS011;68247;43.514;1.502;2023-11-19T13:45:13;8.17;;;4.80;;
78871;SDS011;68247;43.514;1.502;2023-11-19T13:47:40;6.73;;;4.47;;
78871;SDS011;68247;43.514;1.502;2023-11-19T13:50:09;7.07;;;4.82;;
78871;SDS011;68247;43.514;1.502;2023-11-19T13:52:39;6.55;;;4.53;;
78871;SDS011;68247;43.514;1.502;2023-11-19T13:55:06;7.15;;;4.20;;
78871;SDS011;68247;43.514;1.502;2023-11-19T13:57:33;6.90;;;4.70;;
78871;SDS011;68247;43.514;1.502;2023-11-19T13:59:59;7.27;;;4.27;;
78871;SDS011;68247;43.514;1.502;2023-11-19T14:02:25;5.47;;;3.60;;
78871;SDS011;68247;43.514;1.502;2023-11-19T14:04:50;6.87;;;4.10;;
78871;SDS011;68247;43.514;1.502;2023-11-19T14:07:15;5.43;;;3.70;;
78871;SDS011;68247;43.514;1.502;2023-11-19T14:09:44;5.03;;;3.60;;
78871;SDS011;68247;43.514;1.502;2023-11-19T14:12:10;7.68;;;4.03;;
78871;SDS011;68247;43.514;1.502;2023-11-19T14:14:37;5.75;;;4.00;;
78871;SDS011;68247;43.514;1.502;2023-11-19T14:17:04;5.45;;;3.90;;
78871;SDS011;68247;43.514;1.502;2023-11-19T14:19:30;6.33;;;3.73;;
78871;SDS011;68247;43.514;1.502;2023-11-19T14:21:55;6.67;;;3.60;;
78871;SDS011;68247;43.514;1.502;2023-11-19T14:24:20;5.68;;;3.67;;
78871;SDS011;68247;43.514;1.502;2023-11-19T14:26:47;6.37;;;3.40;;
78871;SDS011;68247;43.514;1.502;2023-11-19T14:29:13;5.63;;;3.45;;
78871;SDS011;68247;43.514;1.502;2023-11-19T14:31:40;7.30;;;3.78;;
78871;SDS011;68247;43.514;1.502;2023-11-19T14:34:05;6.67;;;3.40;;
78871;SDS011;68247;43.514;1.502;2023-11-19T14:36:31;7.18;;;3.60;;
78871;SDS011;68247;43.514;1.502;2023-11-19T14:38:56;7.30;;;3.60;;
78871;SDS011;68247;43.514;1.502;2023-11-19T14:41:23;7.60;;;3.83;;
78871;SDS011;68247;43.514;1.502;2023-11-19T14:43:49;6.40;;;3.63;;
78871;SDS011;68247;43.514;1.502;2023-11-19T14:46:14;5.20;;;3.67;;
78871;SDS011;68247;43.514;1.502;2023-11-19T14:48:40;5.70;;;3.63;;
78871;SDS011;68247;43.514;1.502;2023-11-19T14:51:05;7.80;;;4.68;;
78871;SDS011;68247;43.514;1.502;2023-11-19T14:53:31;5.73;;;3.50;;
78871;SDS011;68247;43.514;1.502;2023-11-19T14:55:56;5.00;;;3.20;;
78871;SDS011;68247;43.514;1.502;2023-11-19T14:58:21;5.57;;;3.47;;
78871;SDS011;68247;43.514;1.502;2023-11-19T15:00:47;5.40;;;3.22;;